createdAt,value
2022-08-25T00:01:54.377Z,2.38
2022-08-25T00:04:24.528Z,2.78
2022-08-25T00:06:59.336Z,2.85
2022-08-25T00:09:29.387Z,2.65
2022-08-25T00:11:57.418Z,2.92
2022-08-25T00:14:33.587Z,2.72
2022-08-25T00:17:03.419Z,2.50
2022-08-25T00:22:19.831Z,2.50
2022-08-25T00:24:47.790Z,3.10
2022-08-25T00:27:15.793Z,2.72
2022-08-25T00:29:43.741Z,2.92
2022-08-25T00:32:13.346Z,2.75
2022-08-25T00:34:41.314Z,2.80
2022-08-25T00:37:10.451Z,2.92
2022-08-25T00:39:39.670Z,2.58
2022-08-25T00:42:15.897Z,2.78
2022-08-25T00:44:45.105Z,2.92
2022-08-25T00:47:14.726Z,3.00
2022-08-25T00:49:46.053Z,2.42
2022-08-25T00:52:17.483Z,2.92
2022-08-25T00:54:51.230Z,2.90
2022-08-25T00:57:34.874Z,3.10
2022-08-25T01:00:08.073Z,2.85
2022-08-25T01:02:37.968Z,2.78
2022-08-25T01:05:07.157Z,2.53
2022-08-25T01:07:35.249Z,2.50
2022-08-25T01:10:03.625Z,3.10
2022-08-25T01:12:31.744Z,2.75
2022-08-25T01:14:59.937Z,2.60
2022-08-25T01:17:35.098Z,2.58
2022-08-25T01:20:05.691Z,3.13
2022-08-25T01:22:35.160Z,2.90
2022-08-25T01:25:06.968Z,3.00
2022-08-25T01:27:34.930Z,2.92
2022-08-25T01:30:02.919Z,3.17
2022-08-25T01:32:34.976Z,2.80
2022-08-25T01:35:03.033Z,3.20
2022-08-25T01:37:30.988Z,2.60
2022-08-25T01:40:00.381Z,2.95
2022-08-25T01:42:43.501Z,2.70
2022-08-25T01:45:11.547Z,2.70
2022-08-25T01:47:39.883Z,2.50
2022-08-25T01:50:08.954Z,2.95
2022-08-25T01:52:51.054Z,2.33
2022-08-25T01:55:20.557Z,2.70
2022-08-25T01:57:48.609Z,2.60
2022-08-25T02:00:18.654Z,2.70
2022-08-25T02:02:47.293Z,2.97
2022-08-25T02:05:23.574Z,2.65
2022-08-25T02:07:51.943Z,2.70
2022-08-25T02:10:22.545Z,2.60
2022-08-25T02:12:51.745Z,2.80
2022-08-25T02:15:22.539Z,2.88
2022-08-25T02:17:50.552Z,2.97
2022-08-25T02:20:19.080Z,3.00
2022-08-25T02:22:56.751Z,3.13
2022-08-25T02:25:26.576Z,3.00
2022-08-25T02:27:54.663Z,2.80
2022-08-25T02:30:22.742Z,2.90
2022-08-25T02:32:51.054Z,2.80
2022-08-25T02:35:19.547Z,2.50
2022-08-25T02:37:47.581Z,3.30
2022-08-25T02:40:15.560Z,2.83
2022-08-25T02:42:45.378Z,2.78
2022-08-25T02:45:14.040Z,2.70
2022-08-25T02:47:42.049Z,2.40
2022-08-25T02:50:11.061Z,3.28
2022-08-25T02:52:39.948Z,3.08
2022-08-25T02:55:12.855Z,3.10
2022-08-25T02:57:42.029Z,2.72
2022-08-25T03:00:14.612Z,3.08
2022-08-25T03:02:43.250Z,2.83
2022-08-25T03:05:12.907Z,3.03
2022-08-25T03:07:41.486Z,2.95
2022-08-25T03:10:13.394Z,2.58
2022-08-25T03:12:42.473Z,2.85
2022-08-25T03:15:15.426Z,2.70
2022-08-25T03:17:45.444Z,2.80
2022-08-25T03:20:15.419Z,2.72
2022-08-25T03:22:43.794Z,2.60
2022-08-25T03:25:29.941Z,2.90
2022-08-25T03:27:58.276Z,2.67
2022-08-25T03:30:28.445Z,2.58
2022-08-25T03:32:56.554Z,2.38
2022-08-25T03:35:24.702Z,3.00
2022-08-25T03:37:56.718Z,2.97
2022-08-25T03:40:25.022Z,2.88
2022-08-25T03:42:53.069Z,2.70
2022-08-25T03:45:21.157Z,3.03
2022-08-25T03:47:52.046Z,2.75
2022-08-25T03:50:22.042Z,3.13
2022-08-25T03:52:53.808Z,2.85
2022-08-25T03:55:24.041Z,3.17
2022-08-25T03:57:52.107Z,3.05
2022-08-25T04:00:20.825Z,2.92
2022-08-25T04:02:50.593Z,2.78
2022-08-25T04:05:20.308Z,3.08
2022-08-25T04:07:48.274Z,2.88
2022-08-25T04:10:17.636Z,3.03
2022-08-25T04:12:45.582Z,2.88
2022-08-25T04:15:13.625Z,2.90
2022-08-25T04:17:42.290Z,2.60
2022-08-25T04:20:14.287Z,2.80
2022-08-25T04:22:44.933Z,3.55
2022-08-25T04:25:13.561Z,3.53
2022-08-25T04:27:42.151Z,2.70
2022-08-25T04:30:11.470Z,2.72
2022-08-25T04:32:39.464Z,3.00
2022-08-25T04:35:08.773Z,3.17
2022-08-25T04:37:38.180Z,3.20
2022-08-25T04:40:06.852Z,3.47
2022-08-25T04:42:35.347Z,3.22
2022-08-25T04:45:04.346Z,3.33
2022-08-25T04:47:32.377Z,3.15
2022-08-25T04:50:00.428Z,3.00
2022-08-25T04:52:28.479Z,3.63
2022-08-25T04:54:57.806Z,3.10
2022-08-25T04:57:25.743Z,3.53
2022-08-25T04:59:54.234Z,3.70
2022-08-25T05:02:22.465Z,3.78
2022-08-25T05:04:50.446Z,3.13
2022-08-25T05:07:18.428Z,2.90
2022-08-25T05:09:46.443Z,3.20
2022-08-25T05:12:15.759Z,2.92
2022-08-25T05:14:43.938Z,3.10
2022-08-25T05:17:11.953Z,3.15
2022-08-25T05:19:39.934Z,2.83
2022-08-25T05:22:07.897Z,2.72
2022-08-25T05:24:35.895Z,3.05
2022-08-25T05:27:04.107Z,2.72
2022-08-25T05:29:33.496Z,3.25
2022-08-25T05:32:01.538Z,3.35
2022-08-25T05:34:30.254Z,2.85
2022-08-25T05:37:00.202Z,3.20
2022-08-25T05:39:32.338Z,3.28
2022-08-25T05:42:00.303Z,3.33
2022-08-25T05:44:28.568Z,3.10
2022-08-25T05:46:57.986Z,3.03
2022-08-25T05:49:26.018Z,3.33
2022-08-25T05:51:54.025Z,3.40
2022-08-25T05:54:21.992Z,3.15
2022-08-25T05:56:50.191Z,2.83
2022-08-25T05:59:18.501Z,2.88
2022-08-25T06:02:03.762Z,3.65
2022-08-25T06:04:33.629Z,3.03
2022-08-25T06:07:01.666Z,3.47
2022-08-25T06:09:29.675Z,3.38
2022-08-25T06:11:57.781Z,3.45
2022-08-25T06:14:27.450Z,3.30
2022-08-25T06:16:55.468Z,3.40
2022-08-25T06:19:23.910Z,3.13
2022-08-25T06:21:56.512Z,3.88
2022-08-25T06:24:26.026Z,3.67
2022-08-25T06:26:54.481Z,4.40
2022-08-25T06:29:22.693Z,3.70
2022-08-25T06:31:50.979Z,3.63
2022-08-25T06:34:19.655Z,3.60
2022-08-25T06:36:51.807Z,3.45
2022-08-25T06:39:21.622Z,3.40
2022-08-25T06:41:52.939Z,3.60
2022-08-25T06:44:21.040Z,4.10
2022-08-25T06:46:49.214Z,4.05
2022-08-25T06:49:17.252Z,3.38
2022-08-25T06:51:45.916Z,4.38
2022-08-25T06:54:14.100Z,3.83
2022-08-25T06:56:43.762Z,4.00
2022-08-25T06:59:12.159Z,3.55
2022-08-25T07:01:40.424Z,4.00
2022-08-25T07:04:13.169Z,4.00
2022-08-25T07:06:41.888Z,3.75
2022-08-25T07:09:10.862Z,3.70
2022-08-25T07:11:39.437Z,3.30
2022-08-25T07:14:10.980Z,3.35
2022-08-25T07:16:40.513Z,3.33
2022-08-25T07:19:09.664Z,4.00
2022-08-25T07:21:45.889Z,3.75
2022-08-25T07:24:15.195Z,3.70
2022-08-25T07:26:43.987Z,3.60
2022-08-25T07:29:16.347Z,3.70
2022-08-25T07:31:46.012Z,3.45
2022-08-25T07:34:31.728Z,4.07
2022-08-25T07:37:00.204Z,3.28
2022-08-25T07:39:29.145Z,3.30
2022-08-25T07:41:57.275Z,3.42
2022-08-25T07:44:28.048Z,3.45
2022-08-25T07:46:57.334Z,3.53
2022-08-25T07:49:35.943Z,3.30
2022-08-25T07:52:07.838Z,3.28
2022-08-25T07:54:38.442Z,3.40
2022-08-25T07:57:08.744Z,3.55
2022-08-25T07:59:41.192Z,3.38
2022-08-25T08:02:16.030Z,2.90
2022-08-25T08:04:49.381Z,3.80
2022-08-25T08:07:19.700Z,3.70
2022-08-25T08:09:55.812Z,3.50
2022-08-25T08:12:24.520Z,3.47
2022-08-25T08:14:54.376Z,3.75
2022-08-25T08:17:22.736Z,3.72
2022-08-25T08:19:50.817Z,3.47
2022-08-25T08:22:19.561Z,3.33
2022-08-25T08:24:54.181Z,3.58
2022-08-25T08:27:23.041Z,3.20
2022-08-25T08:29:51.155Z,3.33
2022-08-25T08:32:20.832Z,3.45
2022-08-25T08:34:53.582Z,3.83
2022-08-25T08:37:22.879Z,3.80
2022-08-25T08:39:52.647Z,3.90
2022-08-25T08:42:39.721Z,4.22
2022-08-25T08:45:18.449Z,3.65
2022-08-25T08:48:00.201Z,3.60
2022-08-25T08:50:35.753Z,3.70
2022-08-25T08:53:10.286Z,3.50
2022-08-25T08:55:41.429Z,3.60
2022-08-25T08:58:12.950Z,3.35
2022-08-25T09:00:52.405Z,3.63
2022-08-25T09:03:32.904Z,3.10
2022-08-25T09:06:04.598Z,3.20
2022-08-25T09:08:35.263Z,3.03
2022-08-25T09:11:11.290Z,3.05
2022-08-25T09:14:04.472Z,3.08
2022-08-25T09:16:58.163Z,3.25
2022-08-25T09:19:59.852Z,3.25
2022-08-25T09:22:41.009Z,3.45
2022-08-25T09:25:22.003Z,3.65
2022-08-25T09:28:06.264Z,3.67
2022-08-25T09:30:45.290Z,3.67
2022-08-25T09:33:21.094Z,3.55
2022-08-25T09:35:53.673Z,3.70
2022-08-25T09:38:22.433Z,3.50
2022-08-25T09:40:53.403Z,3.75
2022-08-25T09:43:30.246Z,3.05
2022-08-25T09:46:02.385Z,3.55
2022-08-25T09:48:39.775Z,3.83
2022-08-25T09:51:19.797Z,3.92
2022-08-25T09:53:53.568Z,3.35
2022-08-25T09:56:24.009Z,3.38
2022-08-25T09:58:58.199Z,3.70
2022-08-25T10:01:34.820Z,3.58
2022-08-25T10:04:04.951Z,3.60
2022-08-25T10:06:44.120Z,3.22
2022-08-25T10:09:26.684Z,3.75
2022-08-25T10:11:57.739Z,3.20
2022-08-25T10:14:35.057Z,2.90
2022-08-25T10:17:27.625Z,3.30
2022-08-25T10:20:17.257Z,3.38
2022-08-25T10:22:48.274Z,3.00
2022-08-25T10:25:26.705Z,2.97
2022-08-25T10:28:05.925Z,2.60
2022-08-25T10:30:53.586Z,2.08
2022-08-25T10:33:34.405Z,2.20
2022-08-25T10:36:13.216Z,2.35
2022-08-25T10:38:45.381Z,2.53
2022-08-25T10:41:27.935Z,2.58
2022-08-25T10:44:05.015Z,3.00
2022-08-25T10:46:41.466Z,3.22
2022-08-25T10:49:19.631Z,2.75
2022-08-25T10:51:59.154Z,2.50
2022-08-25T10:54:47.771Z,2.60
2022-08-25T10:57:23.769Z,2.70
2022-08-25T11:00:05.912Z,2.80
2022-08-25T11:03:01.290Z,2.78
2022-08-25T11:05:33.082Z,3.10
2022-08-25T11:08:09.659Z,2.58
2022-08-25T11:10:46.080Z,2.63
2022-08-25T11:13:26.881Z,3.20
2022-08-25T11:16:16.683Z,3.00
2022-08-25T11:18:56.571Z,2.33
2022-08-25T11:21:32.818Z,2.50
2022-08-25T11:24:11.916Z,2.40
2022-08-25T11:26:55.052Z,2.47
2022-08-25T11:29:26.610Z,2.17
2022-08-25T11:31:55.456Z,2.08
2022-08-25T11:34:24.686Z,2.38
2022-08-25T11:36:56.095Z,2.25
2022-08-25T11:39:41.102Z,2.30
2022-08-25T11:42:27.142Z,2.17
2022-08-25T11:45:03.637Z,2.53
2022-08-25T11:48:02.173Z,2.55
2022-08-25T11:50:35.082Z,2.65
2022-08-25T11:53:23.670Z,2.97
2022-08-25T11:55:58.775Z,2.83
2022-08-25T11:58:47.604Z,2.40
2022-08-25T12:01:57.358Z,2.47
2022-08-25T12:04:44.250Z,2.60
2022-08-25T12:07:28.869Z,2.45
2022-08-25T12:10:19.472Z,1.92
2022-08-25T12:13:04.818Z,2.45
2022-08-25T12:16:03.180Z,1.92
2022-08-25T12:18:45.646Z,2.22
2022-08-25T12:21:17.660Z,1.85
2022-08-25T12:24:05.137Z,2.03
2022-08-25T12:26:43.015Z,2.22
2022-08-25T12:29:21.541Z,2.22
2022-08-25T12:32:20.131Z,2.25
2022-08-25T12:35:17.274Z,2.33
2022-08-25T12:37:56.736Z,1.75
2022-08-25T12:40:29.096Z,1.90
2022-08-25T12:43:26.331Z,1.92
2022-08-25T12:45:56.443Z,2.17
2022-08-25T12:48:56.988Z,1.80
2022-08-25T12:51:27.968Z,2.25
2022-08-25T12:54:01.997Z,1.90
2022-08-25T12:56:39.448Z,2.28
2022-08-25T12:59:18.439Z,2.30
2022-08-25T13:02:14.014Z,2.00
2022-08-25T13:05:02.709Z,1.92
2022-08-25T13:07:47.580Z,2.00
2022-08-25T13:10:44.789Z,1.73
2022-08-25T13:13:20.927Z,2.03
2022-08-25T13:16:00.284Z,1.83
2022-08-25T13:18:30.845Z,2.20
2022-08-25T13:21:09.727Z,2.20
2022-08-25T13:23:42.068Z,1.75
2022-08-25T13:26:13.836Z,1.95
2022-08-25T13:28:50.394Z,1.85
2022-08-25T13:31:22.146Z,1.75
2022-08-25T13:33:55.661Z,1.98
2022-08-25T13:36:47.482Z,1.80
2022-08-25T13:39:45.679Z,1.85
2022-08-25T13:42:15.321Z,2.03
2022-08-25T13:44:52.456Z,1.80
2022-08-25T13:47:45.370Z,1.88
2022-08-25T13:50:20.294Z,1.77
2022-08-25T13:52:52.125Z,1.92
2022-08-25T13:55:27.408Z,2.15
2022-08-25T13:57:55.751Z,1.75
2022-08-25T14:00:33.122Z,2.00
2022-08-25T14:03:08.725Z,1.77
2022-08-25T14:05:45.583Z,1.65
2022-08-25T14:11:14.923Z,1.77
2022-08-25T14:13:46.049Z,1.52
2022-08-25T14:16:20.813Z,1.88
2022-08-25T14:18:53.292Z,1.70
2022-08-25T14:21:24.813Z,1.90
2022-08-25T14:23:54.312Z,1.85
2022-08-25T14:26:23.999Z,1.77
2022-08-25T14:28:54.670Z,1.90
2022-08-25T14:31:28.560Z,1.85
2022-08-25T14:34:00.618Z,1.98
2022-08-25T14:36:32.458Z,1.77
2022-08-25T14:39:00.587Z,2.13
2022-08-25T14:41:31.066Z,1.60
2022-08-25T14:43:59.127Z,2.13
2022-08-25T14:46:33.875Z,1.90
2022-08-25T14:49:05.776Z,1.58
2022-08-25T14:51:36.205Z,1.73
2022-08-25T14:54:07.862Z,1.77
2022-08-25T14:56:38.363Z,1.70
2022-08-25T14:59:11.184Z,1.88
2022-08-25T15:01:39.195Z,1.45
2022-08-25T15:04:10.628Z,1.95
2022-08-25T15:06:41.915Z,1.95
2022-08-25T15:09:13.628Z,1.45
2022-08-25T15:11:45.082Z,1.77
2022-08-25T15:14:15.640Z,1.60
2022-08-25T15:16:46.428Z,1.42
2022-08-25T15:19:17.306Z,1.60
2022-08-25T15:21:46.847Z,1.83
2022-08-25T15:24:17.220Z,1.50
2022-08-25T15:29:25.438Z,1.38
2022-08-25T15:31:53.677Z,1.45
2022-08-25T15:34:21.740Z,1.50
2022-08-25T15:36:50.316Z,1.45
2022-08-25T15:39:19.589Z,1.60
2022-08-25T15:41:52.170Z,1.63
2022-08-25T15:44:20.440Z,1.38
2022-08-25T15:46:50.166Z,1.40
2022-08-25T15:49:20.934Z,1.67
2022-08-25T15:51:52.423Z,1.40
2022-08-25T15:54:20.745Z,1.60
2022-08-25T15:56:50.336Z,1.40
2022-08-25T15:59:21.710Z,1.38
2022-08-25T16:01:53.438Z,1.30
2022-08-25T16:04:22.507Z,1.42
2022-08-25T16:06:51.921Z,1.45
2022-08-25T16:09:22.871Z,1.45
2022-08-25T16:11:55.707Z,1.50
2022-08-25T16:14:26.106Z,1.88
2022-08-25T16:16:58.218Z,1.55
2022-08-25T16:19:28.505Z,1.58
2022-08-25T16:21:56.792Z,1.70
2022-08-25T16:24:25.271Z,1.60
2022-08-25T16:26:55.806Z,1.20
2022-08-25T16:29:24.093Z,1.42
2022-08-25T16:31:53.234Z,1.55
2022-08-25T16:34:24.598Z,1.30
2022-08-25T16:36:53.251Z,1.58
2022-08-25T16:39:21.263Z,1.40
2022-08-25T16:41:50.179Z,1.70
2022-08-25T16:44:22.708Z,1.67
2022-08-25T16:46:54.369Z,1.85
2022-08-25T16:49:24.169Z,1.50
2022-08-25T16:51:57.081Z,1.30
2022-08-25T16:54:43.989Z,1.15
2022-08-25T16:57:12.215Z,1.52
2022-08-25T16:59:42.580Z,1.15
2022-08-25T17:02:12.210Z,1.42
2022-08-25T17:04:40.822Z,1.50
2022-08-25T17:07:09.047Z,1.55
2022-08-25T17:09:37.212Z,1.50
2022-08-25T17:12:05.616Z,1.70
2022-08-25T17:14:33.674Z,1.70
2022-08-25T17:17:04.070Z,1.50
2022-08-25T17:19:35.339Z,1.60
2022-08-25T17:22:03.364Z,1.35
2022-08-25T17:24:33.754Z,1.50
2022-08-25T17:27:02.806Z,1.10
2022-08-25T17:29:30.853Z,1.35
2022-08-25T17:31:59.355Z,1.48
2022-08-25T17:34:29.153Z,1.40
2022-08-25T17:36:59.687Z,1.58
2022-08-25T17:39:28.594Z,1.63
2022-08-25T17:41:56.622Z,1.58
2022-08-25T17:44:24.662Z,1.30
2022-08-25T17:46:52.730Z,1.42
2022-08-25T17:49:20.746Z,1.63
2022-08-25T17:51:50.204Z,1.38
2022-08-25T17:54:18.851Z,1.55
2022-08-25T17:56:46.809Z,1.60
2022-08-25T17:59:16.416Z,1.42
2022-08-25T18:01:45.673Z,1.60
2022-08-25T18:04:15.633Z,1.45
2022-08-25T18:06:46.820Z,1.70
2022-08-25T18:09:17.397Z,1.38
2022-08-25T18:11:46.090Z,1.75
2022-08-25T18:14:16.701Z,1.38
2022-08-25T18:16:44.804Z,1.38
2022-08-25T18:19:14.379Z,1.15
2022-08-25T18:21:43.614Z,1.70
2022-08-25T18:24:13.473Z,1.48
2022-08-25T18:26:43.076Z,1.38
2022-08-25T18:29:13.274Z,3.38
2022-08-25T18:31:42.439Z,1.70
2022-08-25T18:34:11.631Z,1.30
2022-08-25T18:36:41.781Z,1.52
2022-08-25T18:39:30.501Z,1.20
2022-08-25T18:42:03.870Z,1.15
2022-08-25T18:44:33.310Z,1.25
2022-08-25T18:47:06.495Z,1.20
2022-08-25T18:49:37.137Z,1.40
2022-08-25T18:52:07.458Z,1.50
2022-08-25T18:54:36.002Z,1.73
2022-08-25T18:57:08.160Z,1.50
2022-08-25T18:59:37.163Z,1.70
2022-08-25T19:02:05.528Z,1.67
2022-08-25T19:04:33.685Z,1.80
2022-08-25T19:07:02.024Z,2.15
2022-08-25T19:09:31.858Z,1.90
2022-08-25T19:11:59.858Z,1.60
2022-08-25T19:14:29.836Z,1.27
2022-08-25T19:16:59.406Z,1.60
2022-08-25T19:19:29.149Z,1.75
2022-08-25T19:21:58.045Z,1.45
2022-08-25T19:24:28.242Z,1.52
2022-08-25T19:26:56.926Z,1.50
2022-08-25T19:29:26.232Z,1.60
2022-08-25T19:31:56.747Z,1.20
2022-08-25T19:34:38.168Z,1.27
2022-08-25T19:37:07.308Z,1.60
2022-08-25T19:39:39.270Z,1.25
2022-08-25T19:42:08.550Z,1.65
2022-08-25T19:44:56.791Z,1.45
2022-08-25T19:47:26.203Z,1.50
2022-08-25T19:49:55.334Z,1.40
2022-08-25T19:52:26.526Z,1.38
2022-08-25T19:54:54.826Z,1.42
2022-08-25T19:57:28.650Z,1.50
2022-08-25T20:00:15.144Z,1.20
2022-08-25T20:02:45.855Z,1.60
2022-08-25T20:05:15.473Z,1.50
2022-08-25T20:07:52.035Z,1.45
2022-08-25T20:10:20.876Z,1.55
2022-08-25T20:12:49.043Z,1.35
2022-08-25T20:15:17.616Z,1.67
2022-08-25T20:17:47.608Z,1.70
2022-08-25T20:20:18.804Z,1.85
2022-08-25T20:22:47.820Z,1.77
2022-08-25T20:25:17.613Z,1.80
2022-08-25T20:27:50.170Z,1.75
2022-08-25T20:30:22.916Z,1.83
2022-08-25T20:32:54.485Z,1.60
2022-08-25T20:35:26.586Z,1.60
2022-08-25T20:37:56.242Z,1.70
2022-08-25T20:40:26.253Z,1.70
2022-08-25T20:42:54.806Z,1.55
2022-08-25T20:45:23.340Z,1.60
2022-08-25T20:47:53.047Z,1.73
2022-08-25T20:50:22.846Z,1.60
2022-08-25T20:52:52.155Z,1.48
2022-08-25T20:55:20.556Z,1.67
2022-08-25T20:57:49.520Z,1.92
2022-08-25T21:00:19.424Z,1.70
2022-08-25T21:02:54.131Z,1.88
2022-08-25T21:05:22.600Z,1.70
2022-08-25T21:07:50.594Z,1.80
2022-08-25T21:10:19.029Z,1.38
2022-08-25T21:12:49.105Z,1.88
2022-08-25T21:15:21.455Z,1.52
2022-08-25T21:17:54.399Z,1.75
2022-08-25T21:20:24.748Z,1.92
2022-08-25T21:22:53.435Z,1.80
2022-08-25T21:25:21.830Z,2.42
2022-08-25T21:27:49.879Z,1.85
2022-08-25T21:30:18.822Z,1.92
2022-08-25T21:32:53.336Z,1.70
2022-08-25T21:35:23.733Z,2.10
2022-08-25T21:37:52.993Z,2.30
2022-08-25T21:40:22.771Z,2.08
2022-08-25T21:42:51.091Z,1.60
2022-08-25T21:45:21.041Z,2.00
2022-08-25T21:47:50.032Z,2.15
2022-08-25T21:50:20.020Z,1.83
2022-08-25T21:52:54.273Z,2.00
2022-08-25T21:55:23.374Z,2.22
2022-08-25T21:57:51.528Z,2.00
2022-08-25T22:00:21.418Z,1.92
2022-08-25T22:02:49.798Z,1.60
2022-08-25T22:05:18.039Z,1.80
2022-08-25T22:07:46.155Z,1.90
2022-08-25T22:10:16.750Z,1.77
2022-08-25T22:12:46.162Z,2.10
2022-08-25T22:15:15.616Z,1.90
2022-08-25T22:17:43.660Z,1.90
2022-08-25T22:20:12.803Z,1.90
2022-08-25T22:22:40.866Z,1.52
2022-08-25T22:25:09.388Z,2.00
2022-08-25T22:27:38.918Z,1.77
2022-08-25T22:30:08.928Z,1.75
2022-08-25T22:32:36.909Z,2.00
2022-08-25T22:35:05.764Z,1.85
2022-08-25T22:37:34.124Z,1.83
2022-08-25T22:40:05.261Z,1.80
2022-08-25T22:42:33.333Z,1.85
2022-08-25T22:45:02.726Z,1.65
2022-08-25T22:47:31.234Z,1.77
2022-08-25T22:49:59.477Z,2.20
2022-08-25T22:52:33.317Z,2.20
2022-08-25T22:55:02.818Z,1.70
2022-08-25T22:57:30.911Z,1.90
2022-08-25T22:59:59.292Z,2.10
2022-08-25T23:02:30.292Z,1.80
2022-08-25T23:05:00.918Z,2.20
2022-08-25T23:07:29.875Z,2.40
2022-08-25T23:09:59.730Z,1.67
2022-08-25T23:12:27.746Z,1.90
2022-08-25T23:14:55.852Z,1.67
2022-08-25T23:17:23.811Z,2.00
2022-08-25T23:19:53.145Z,2.08
2022-08-25T23:22:20.175Z,1.70
2022-08-25T23:24:52.772Z,2.00
2022-08-25T23:27:22.651Z,1.85
2022-08-25T23:29:51.217Z,2.10
2022-08-25T23:32:19.624Z,1.90
2022-08-25T23:34:48.037Z,2.00
2022-08-25T23:37:18.514Z,2.17
2022-08-25T23:39:49.823Z,1.75
2022-08-25T23:42:19.511Z,2.08
2022-08-25T23:44:48.083Z,1.70
2022-08-25T23:47:16.152Z,1.60
2022-08-25T23:49:44.229Z,1.65
2022-08-25T23:52:12.317Z,1.83
2022-08-25T23:54:41.637Z,1.55
2022-08-25T23:57:09.584Z,1.90
2022-08-25T23:59:38.338Z,2.15
